createdAt,value
2019-03-19T00:02:27.648Z,73.86
2019-03-19T00:05:50.897Z,74.01
2019-03-19T00:09:15.337Z,74.78
2019-03-19T00:12:38.503Z,74.62
2019-03-19T00:16:01.661Z,74.26
2019-03-19T00:19:24.858Z,73.81
2019-03-19T00:22:47.965Z,73.40
2019-03-19T00:26:14.118Z,73.76
2019-03-19T00:29:38.362Z,73.41
2019-03-19T00:33:02.561Z,73.49
2019-03-19T00:36:25.691Z,73.27
2019-03-19T00:39:48.820Z,73.22
2019-03-19T00:43:12.375Z,73.47
2019-03-19T00:46:35.469Z,74.02
2019-03-19T00:49:58.613Z,73.75
2019-03-19T00:53:21.703Z,74.28
2019-03-19T00:56:44.778Z,74.25
2019-03-19T01:00:10.431Z,74.48
2019-03-19T01:03:33.512Z,73.42
2019-03-19T01:06:56.706Z,74.34
2019-03-19T01:10:19.985Z,74.26
2019-03-19T01:13:43.143Z,74.49
2019-03-19T01:17:06.447Z,74.51
2019-03-19T01:20:29.554Z,74.86
2019-03-19T01:23:52.796Z,75.09
2019-03-19T01:27:18.016Z,74.81
2019-03-19T01:30:41.119Z,75.59
2019-03-19T01:34:04.205Z,75.21
2019-03-19T01:37:27.320Z,74.78
2019-03-19T01:40:50.600Z,74.90
2019-03-19T01:44:14.059Z,74.96
2019-03-19T01:47:37.207Z,74.34
2019-03-19T01:51:00.346Z,75.50
2019-03-19T01:54:23.424Z,75.06
2019-03-19T01:57:46.602Z,75.36
2019-03-19T02:01:09.852Z,75.39
2019-03-19T02:04:33.035Z,75.33
2019-03-19T02:07:56.249Z,75.73
2019-03-19T02:11:19.350Z,75.25
2019-03-19T02:14:42.651Z,75.29
2019-03-19T02:18:05.784Z,75.79
2019-03-19T02:21:29.207Z,75.60
2019-03-19T02:24:52.631Z,75.51
2019-03-19T02:28:15.881Z,75.21
2019-03-19T02:31:38.986Z,75.61
2019-03-19T02:35:02.140Z,75.71
2019-03-19T02:38:25.443Z,76.46
2019-03-19T02:41:48.783Z,76.04
2019-03-19T02:45:12.133Z,76.35
2019-03-19T02:48:35.675Z,75.76
2019-03-19T02:51:58.905Z,76.01
2019-03-19T02:55:22.342Z,74.89
2019-03-19T02:58:45.448Z,75.76
2019-03-19T03:02:08.604Z,75.58
2019-03-19T03:05:31.814Z,76.00
2019-03-19T03:08:54.924Z,75.41
2019-03-19T03:12:18.046Z,75.61
2019-03-19T03:15:41.173Z,76.24
2019-03-19T03:19:04.443Z,76.62
2019-03-19T03:22:27.642Z,76.75
2019-03-19T03:25:50.793Z,76.32
2019-03-19T03:29:13.884Z,76.53
2019-03-19T03:32:37.030Z,76.78
2019-03-19T03:36:00.122Z,76.31
2019-03-19T03:39:23.252Z,76.80
2019-03-19T03:42:46.386Z,76.57
2019-03-19T03:46:09.477Z,76.79
2019-03-19T03:49:32.967Z,77.05
2019-03-19T03:52:56.055Z,76.04
2019-03-19T03:56:19.148Z,76.34
2019-03-19T03:59:42.346Z,76.46
2019-03-19T04:03:05.470Z,76.35
2019-03-19T04:06:28.651Z,77.02
2019-03-19T04:09:52.957Z,77.21
2019-03-19T04:13:16.121Z,77.55
2019-03-19T04:16:39.303Z,76.10
2019-03-19T04:20:02.580Z,76.51
2019-03-19T04:23:25.674Z,75.93
2019-03-19T04:26:48.957Z,76.52
2019-03-19T04:30:12.285Z,76.11
2019-03-19T04:33:35.411Z,76.69
2019-03-19T04:36:58.527Z,77.29
2019-03-19T04:40:21.732Z,76.83
2019-03-19T04:43:44.805Z,76.39
2019-03-19T04:47:08.248Z,76.87
2019-03-19T04:50:31.364Z,77.25
2019-03-19T04:53:54.943Z,77.13
2019-03-19T04:57:26.309Z,77.15
2019-03-19T05:00:43.616Z,76.43
2019-03-19T05:04:06.931Z,76.47
2019-03-19T05:07:30.030Z,77.22
2019-03-19T05:10:53.536Z,76.50
2019-03-19T05:14:16.738Z,75.78
2019-03-19T05:17:39.993Z,75.82
2019-03-19T05:21:03.143Z,76.08
2019-03-19T05:24:27.243Z,77.89
2019-03-19T05:27:50.357Z,77.27
2019-03-19T05:31:13.499Z,77.16
2019-03-19T05:34:36.924Z,76.69
2019-03-19T05:38:00.393Z,76.62
2019-03-19T05:41:23.475Z,76.57
2019-03-19T05:44:46.745Z,78.05
2019-03-19T05:48:09.840Z,77.23
2019-03-19T05:51:32.995Z,77.65
2019-03-19T05:54:56.326Z,76.35
2019-03-19T05:58:22.500Z,77.06
2019-03-19T06:01:45.668Z,75.78
2019-03-19T06:05:10.363Z,76.50
2019-03-19T06:08:33.795Z,76.67
2019-03-19T06:11:59.887Z,77.90
2019-03-19T06:15:23.006Z,77.98
2019-03-19T06:18:46.193Z,76.50
2019-03-19T06:22:09.316Z,76.60
2019-03-19T06:25:33.482Z,77.45
2019-03-19T06:28:56.579Z,77.40
2019-03-19T06:32:19.886Z,76.63
2019-03-19T06:35:43.146Z,76.20
2019-03-19T06:39:07.434Z,75.78
2019-03-19T06:42:30.751Z,76.75
2019-03-19T06:45:53.974Z,76.53
2019-03-19T06:49:17.131Z,76.39
2019-03-19T06:52:40.629Z,75.52
2019-03-19T06:56:04.040Z,75.99
2019-03-19T06:59:27.296Z,75.08
2019-03-19T07:02:50.662Z,75.58
2019-03-19T07:06:14.830Z,75.30
2019-03-19T07:09:38.019Z,74.87
2019-03-19T07:13:01.253Z,74.47
2019-03-19T07:16:24.407Z,74.05
2019-03-19T07:19:47.519Z,73.93
2019-03-19T07:23:10.691Z,73.29
2019-03-19T07:26:34.027Z,72.98
2019-03-19T07:29:58.220Z,72.68
2019-03-19T07:33:21.349Z,71.51
2019-03-19T07:36:44.485Z,71.33
2019-03-19T07:40:09.367Z,70.82
2019-03-19T07:43:32.600Z,70.81
2019-03-19T07:46:56.054Z,71.34
2019-03-19T07:50:19.590Z,70.08
2019-03-19T07:53:42.810Z,69.64
2019-03-19T07:57:05.980Z,69.22
2019-03-19T08:00:29.167Z,69.89
2019-03-19T08:03:52.286Z,69.46
2019-03-19T08:07:16.037Z,69.03
2019-03-19T08:10:39.174Z,69.11
2019-03-19T08:14:02.335Z,69.42
2019-03-19T08:17:26.460Z,69.21
2019-03-19T08:20:49.609Z,68.07
2019-03-19T08:24:12.736Z,67.59
2019-03-19T08:27:35.916Z,66.47
2019-03-19T08:30:59.263Z,66.80
2019-03-19T08:34:22.646Z,65.97
2019-03-19T08:37:45.901Z,66.61
2019-03-19T08:41:09.163Z,66.17
2019-03-19T08:44:32.643Z,65.58
2019-03-19T08:47:55.784Z,65.44
2019-03-19T08:51:19.421Z,64.42
2019-03-19T08:54:42.729Z,63.97
2019-03-19T08:58:05.928Z,63.43
2019-03-19T09:01:29.227Z,63.51
2019-03-19T09:04:52.475Z,63.92
2019-03-19T09:08:15.590Z,62.90
2019-03-19T09:11:38.764Z,62.74
2019-03-19T09:15:02.004Z,62.37
2019-03-19T09:18:25.328Z,61.39
2019-03-19T09:21:49.149Z,61.33
2019-03-19T09:25:12.849Z,60.83
2019-03-19T09:28:36.056Z,60.66
2019-03-19T09:31:59.182Z,58.27
2019-03-19T09:35:22.467Z,57.60
2019-03-19T09:38:45.578Z,56.61
2019-03-19T09:42:08.746Z,57.18
2019-03-19T09:45:31.915Z,56.23
2019-03-19T09:48:56.069Z,55.05
2019-03-19T09:52:19.324Z,55.46
2019-03-19T09:55:42.893Z,52.66
2019-03-19T09:59:06.043Z,49.81
2019-03-19T10:02:29.174Z,49.47
2019-03-19T10:05:52.793Z,48.47
2019-03-19T10:09:15.989Z,43.03
2019-03-19T10:12:39.141Z,39.21
2019-03-19T10:16:02.278Z,33.96
2019-03-19T10:19:25.474Z,34.72
2019-03-19T10:22:48.735Z,33.28
2019-03-19T10:26:12.301Z,32.99
2019-03-19T10:29:38.628Z,31.13
2019-03-19T10:33:00.936Z,29.34
2019-03-19T10:36:24.521Z,28.84
2019-03-19T10:39:47.681Z,26.37
2019-03-19T10:43:10.926Z,27.68
2019-03-19T10:46:35.176Z,29.05
2019-03-19T10:49:58.632Z,28.57
2019-03-19T10:53:21.868Z,28.75
2019-03-19T10:56:45.074Z,29.47
2019-03-19T11:00:16.966Z,29.39
2019-03-19T11:03:40.334Z,29.73
2019-03-19T11:07:03.471Z,28.42
2019-03-19T11:10:26.676Z,29.58
2019-03-19T11:13:49.885Z,28.76
2019-03-19T11:17:13.164Z,28.08
2019-03-19T11:20:36.408Z,26.68
2019-03-19T11:23:59.554Z,27.17
2019-03-19T11:27:22.661Z,28.13
2019-03-19T11:30:45.947Z,26.98
2019-03-19T11:34:09.194Z,27.57
2019-03-19T11:37:32.555Z,26.16
2019-03-19T11:40:56.082Z,26.19
2019-03-19T11:44:19.465Z,28.11
2019-03-19T11:47:42.958Z,28.09
2019-03-19T11:51:06.146Z,29.41
2019-03-19T11:54:32.351Z,30.48
2019-03-19T11:57:58.877Z,29.17
2019-03-19T12:01:22.505Z,28.71
2019-03-19T12:04:46.074Z,26.10
2019-03-19T12:08:09.981Z,28.28
2019-03-19T12:11:33.187Z,26.40
2019-03-19T12:14:56.587Z,23.42
2019-03-19T12:18:20.101Z,25.57
2019-03-19T12:21:43.849Z,24.65
2019-03-19T12:25:09.643Z,23.00
2019-03-19T12:28:39.533Z,23.08
2019-03-19T12:32:01.535Z,24.24
2019-03-19T12:35:24.779Z,22.76
2019-03-19T12:38:47.946Z,26.71
2019-03-19T12:42:11.073Z,24.30
2019-03-19T12:45:34.361Z,23.10
2019-03-19T12:48:57.658Z,21.81
2019-03-19T12:52:20.950Z,23.35
2019-03-19T12:55:44.243Z,23.97
2019-03-19T12:59:07.524Z,24.18
2019-03-19T13:02:30.772Z,22.94
2019-03-19T13:05:54.057Z,22.93
2019-03-19T13:09:17.554Z,25.24
2019-03-19T13:12:40.736Z,25.10
2019-03-19T13:16:04.123Z,25.51
2019-03-19T13:19:27.296Z,26.05
2019-03-19T13:22:50.477Z,33.93
2019-03-19T13:26:13.592Z,36.61
2019-03-19T13:29:36.947Z,34.70
2019-03-19T13:33:00.413Z,31.22
2019-03-19T13:36:24.302Z,31.89
2019-03-19T13:39:47.802Z,34.64
2019-03-19T13:43:13.737Z,32.39
2019-03-19T13:46:41.855Z,33.84
2019-03-19T13:50:06.059Z,33.90
2019-03-19T13:53:29.137Z,34.93
2019-03-19T13:56:52.404Z,36.15
2019-03-19T14:00:55.657Z,35.25
2019-03-19T14:04:16.039Z,35.77
2019-03-19T14:07:39.582Z,35.67
2019-03-19T14:11:03.864Z,35.85
2019-03-19T14:14:27.328Z,37.69
2019-03-19T14:17:50.745Z,40.10
2019-03-19T14:21:13.864Z,39.12
2019-03-19T14:24:37.062Z,38.61
2019-03-19T14:28:00.219Z,38.59
2019-03-19T14:31:23.372Z,37.46
2019-03-19T14:34:46.540Z,37.21
2019-03-19T14:38:10.062Z,37.67
2019-03-19T14:41:33.353Z,37.98
2019-03-19T14:44:56.571Z,34.54
2019-03-19T14:48:19.830Z,33.52
2019-03-19T14:51:42.943Z,30.85
2019-03-19T14:55:06.260Z,26.40
2019-03-19T14:58:29.396Z,25.22
2019-03-19T15:01:52.811Z,24.39
2019-03-19T15:05:16.351Z,25.15
2019-03-19T15:08:39.888Z,24.49
2019-03-19T15:12:03.129Z,29.21
2019-03-19T15:15:26.381Z,28.15
2019-03-19T15:18:49.477Z,31.04
2019-03-19T15:22:12.719Z,32.43
2019-03-19T15:25:36.044Z,35.03
2019-03-19T15:28:59.340Z,36.90
2019-03-19T15:32:22.567Z,37.83
2019-03-19T15:35:45.746Z,38.77
2019-03-19T15:39:08.891Z,41.06
2019-03-19T15:42:32.077Z,41.50
2019-03-19T15:45:55.439Z,39.77
2019-03-19T15:49:18.784Z,42.18
2019-03-19T15:52:42.166Z,41.35
2019-03-19T15:56:05.559Z,42.85
2019-03-19T15:59:28.798Z,40.57
2019-03-19T16:02:52.225Z,41.61
2019-03-19T16:06:15.719Z,42.41
2019-03-19T16:09:39.061Z,41.46
2019-03-19T16:13:02.272Z,41.64
2019-03-19T16:16:25.572Z,43.30
2019-03-19T16:19:50.048Z,41.79
2019-03-19T16:23:14.273Z,40.98
2019-03-19T16:26:37.795Z,42.40
2019-03-19T16:30:00.909Z,41.86
2019-03-19T16:33:24.182Z,41.80
2019-03-19T16:36:47.438Z,44.47
2019-03-19T16:40:16.068Z,42.92
2019-03-19T16:43:39.438Z,44.13
2019-03-19T16:47:02.927Z,43.34
2019-03-19T16:50:26.275Z,43.80
2019-03-19T16:53:49.665Z,44.94
2019-03-19T16:57:12.966Z,46.41
2019-03-19T17:00:36.175Z,49.85
2019-03-19T17:03:59.511Z,49.06
2019-03-19T17:07:22.644Z,48.99
2019-03-19T17:12:14.396Z,49.21
2019-03-19T17:16:06.107Z,49.96
2019-03-19T17:19:29.302Z,51.61
2019-03-19T17:22:52.451Z,51.31
2019-03-19T17:26:16.571Z,51.08
2019-03-19T17:29:39.679Z,52.81
2019-03-19T17:33:07.854Z,51.44
2019-03-19T17:36:36.843Z,53.57
2019-03-19T17:40:09.423Z,53.93
2019-03-19T17:43:33.587Z,55.25
2019-03-19T17:46:57.995Z,54.87
2019-03-19T17:50:21.420Z,53.62
2019-03-19T17:53:45.052Z,52.75
2019-03-19T17:57:08.305Z,54.60
2019-03-19T18:00:31.929Z,55.85
2019-03-19T18:03:55.137Z,55.44
2019-03-19T18:07:18.309Z,57.11
2019-03-19T18:10:42.505Z,56.57
2019-03-19T18:14:05.762Z,58.19
2019-03-19T18:17:29.011Z,58.87
2019-03-19T18:20:52.313Z,57.15
2019-03-19T18:24:15.429Z,57.87
2019-03-19T18:27:38.667Z,55.02
2019-03-19T18:31:01.801Z,56.93
2019-03-19T18:34:25.107Z,57.98
2019-03-19T18:37:48.390Z,57.73
2019-03-19T18:41:12.022Z,59.68
2019-03-19T18:44:35.188Z,59.98
2019-03-19T18:47:58.291Z,60.28
2019-03-19T18:51:21.410Z,60.53
2019-03-19T18:54:44.691Z,61.88
2019-03-19T18:58:07.864Z,61.69
2019-03-19T19:01:31.054Z,61.64
2019-03-19T19:04:54.477Z,61.94
2019-03-19T19:08:17.764Z,61.06
2019-03-19T19:11:41.021Z,61.52
2019-03-19T19:15:05.673Z,62.06
2019-03-19T19:18:28.838Z,62.70
2019-03-19T19:21:52.305Z,62.86
2019-03-19T19:25:18.115Z,62.63
2019-03-19T19:28:42.559Z,63.57
2019-03-19T19:32:05.701Z,63.90
2019-03-19T19:35:28.839Z,63.97
2019-03-19T19:38:52.334Z,63.88
2019-03-19T19:42:15.953Z,64.38
2019-03-19T19:45:39.788Z,64.26
2019-03-19T19:49:03.012Z,64.09
2019-03-19T19:52:26.360Z,64.11
2019-03-19T19:55:49.686Z,65.12
2019-03-19T19:59:13.010Z,64.43
2019-03-19T20:02:36.263Z,65.13
2019-03-19T20:05:59.690Z,64.80
2019-03-19T20:09:23.087Z,65.17
2019-03-19T20:12:46.551Z,65.80
2019-03-19T20:16:10.016Z,65.57
2019-03-19T20:19:33.234Z,65.81
2019-03-19T20:22:56.555Z,66.05
2019-03-19T20:26:19.747Z,65.73
2019-03-19T20:29:43.274Z,65.33
2019-03-19T20:33:06.506Z,66.85
2019-03-19T20:36:29.774Z,66.49
2019-03-19T20:39:54.758Z,65.90
2019-03-19T20:43:18.233Z,65.75
2019-03-19T20:46:44.057Z,66.10
2019-03-19T20:50:17.948Z,66.98
2019-03-19T20:53:41.351Z,66.50
2019-03-19T20:57:05.245Z,66.72
2019-03-19T21:00:31.812Z,67.19
2019-03-19T21:03:55.125Z,66.17
2019-03-19T21:07:18.257Z,66.15
2019-03-19T21:10:41.633Z,67.14
2019-03-19T21:14:05.109Z,66.58
2019-03-19T21:17:28.418Z,66.48
2019-03-19T21:20:51.695Z,67.17
2019-03-19T21:24:15.038Z,67.36
2019-03-19T21:27:41.744Z,66.53
2019-03-19T21:31:08.437Z,67.55
2019-03-19T21:34:32.047Z,67.61
2019-03-19T21:37:55.185Z,68.59
2019-03-19T21:41:18.503Z,68.10
2019-03-19T21:44:41.731Z,68.12
2019-03-19T21:48:04.815Z,67.78
2019-03-19T21:51:28.337Z,67.13
2019-03-19T21:54:51.440Z,66.57
2019-03-19T21:58:14.540Z,67.49
2019-03-19T22:01:37.855Z,67.24
2019-03-19T22:05:01.181Z,65.02
2019-03-19T22:08:24.406Z,65.27
2019-03-19T22:11:47.650Z,67.35
2019-03-19T22:15:14.302Z,66.45
2019-03-19T22:18:37.826Z,66.75
2019-03-19T22:22:00.943Z,68.62
2019-03-19T22:25:24.397Z,66.00
2019-03-19T22:28:47.777Z,65.24
2019-03-19T22:32:10.981Z,65.84
2019-03-19T22:35:34.202Z,65.75
2019-03-19T22:38:57.381Z,67.02
2019-03-19T22:42:20.664Z,67.92
2019-03-19T22:45:43.825Z,68.75
2019-03-19T22:49:07.307Z,68.84
2019-03-19T22:52:30.519Z,68.48
2019-03-19T22:55:53.752Z,68.59
2019-03-19T22:59:17.000Z,68.67
2019-03-19T23:02:40.213Z,67.52
2019-03-19T23:06:03.467Z,67.38
2019-03-19T23:09:26.697Z,67.74
2019-03-19T23:12:49.985Z,67.36
2019-03-19T23:16:13.253Z,67.30
2019-03-19T23:19:36.663Z,67.89
2019-03-19T23:22:59.812Z,67.47
2019-03-19T23:26:22.988Z,67.07
2019-03-19T23:29:46.193Z,67.37
2019-03-19T23:33:09.394Z,68.09
2019-03-19T23:36:35.568Z,68.71
2019-03-19T23:39:59.182Z,68.89
2019-03-19T23:43:22.454Z,68.93
2019-03-19T23:46:45.701Z,68.94
2019-03-19T23:50:10.158Z,68.23
2019-03-19T23:53:34.616Z,66.92
2019-03-19T23:56:57.999Z,67.42
